NCAR-RAP Real-Time Weather Data

Output produced by METARs form (06 May 2021  15:12 UTC)
found at http://weather.rap.ucar.edu/surface/
 
KLWT 061454Z AUTO 09005KT 10SM CLR 11/00 A3024 RMK AO2 SLP241 T01110000 58002
KLWT 061354Z AUTO 12005KT 10SM CLR 06/00 A3025 RMK AO2 SLP247 T00560000
KLWT 061254Z AUTO 12005KT 10SM CLR 02/M02 A3025 RMK AO2 SLP252 T00171022
KLWT 061154Z AUTO 14006KT 10SM CLR 00/M03 A3025 RMK AO2 SLP249 T00001028 10028 21006 56007
KLWT 061054Z AUTO 14005KT 10SM CLR 00/M03 A3025 RMK AO2 SLP251 T00001028
KLWT 060954Z AUTO 13005KT 10SM CLR 01/M02 A3026 RMK AO2 SLP254 T00111022
KLWT 060854Z AUTO 12005KT 10SM CLR 01/M02 A3027 RMK AO2 SLP258 T00111022 58007
KLWT 060754Z AUTO 14004KT 10SM CLR 02/M02 A3029 RMK AO2 SLP266 T00171017
KLWT 060654Z AUTO 13006KT 10SM CLR 01/M02 A3029 RMK AO2 SLP269 T00111017 401280006
KLWT 060554Z AUTO 15005KT 10SM CLR 02/M01 A3030 RMK AO2 SLP268 T00221011 10128 20017 50007
KLWT 060454Z AUTO 19007KT 10SM CLR 04/M01 A3030 RMK AO2 SLP272 T00391011
KLWT 060354Z AUTO 18006KT 10SM CLR 04/M01 A3029 RMK AO2 SLP269 T00391006
KLWT 060254Z AUTO 00000KT 10SM CLR 07/M01 A3027 RMK AO2 SLP259 T00671011 53006
KLWT 060154Z AUTO 36006KT 10SM CLR 10/M01 A3025 RMK AO2 SLP246 T01001011